Ames, Kansas
Current Conditions -  °F | °C
As of 9:55 PM on Wednesday 28 Jan 2015 (Local Time) from KCNK Reporting Station
Clear Clear  
Wind Chill: 53°   Ceiling: Unl
Heat Index: 53°   Visibility: 10mi
Dew Point: 30°   Wind: 10mph
Humidity: 41%   Direction: 320°NW
Pressure: 29.93"   Gusts: NA
Location:  39.4716°N, 97.7305°W
Report Text: KCNK 290355Z AUTO 32009KT 10SM CLR 12/M01 A2993 RMK AO2 SLP135 T01171011
Loading
Personal Weather Stations






























Interactive Weather Map New forecast layout! Learn more

10-Day Weather Forecast

Advertisements
Track Severe Weather on mobile